createdAt,value
2023-01-25T00:00:09.509Z,5
2023-01-25T00:02:09.697Z,6
2023-01-25T00:04:09.696Z,5
2023-01-25T00:06:09.818Z,6
2023-01-25T00:08:09.943Z,5
2023-01-25T00:10:10.038Z,5
2023-01-25T00:12:10.176Z,6
2023-01-25T00:14:10.261Z,6
2023-01-25T00:16:10.425Z,6
2023-01-25T00:18:10.501Z,6
2023-01-25T00:20:10.602Z,5
2023-01-25T00:22:10.665Z,5
2023-01-25T00:24:10.858Z,6
2023-01-25T00:26:10.901Z,6
2023-01-25T00:28:11.024Z,6
2023-01-25T00:30:11.208Z,5
2023-01-25T00:32:11.339Z,6
2023-01-25T00:34:11.324Z,6
2023-01-25T00:36:11.423Z,7
2023-01-25T00:38:11.528Z,6
2023-01-25T00:42:11.767Z,6
2023-01-25T00:44:11.838Z,6
2023-01-25T00:46:12.025Z,6
2023-01-25T00:48:12.051Z,6
2023-01-25T00:50:12.195Z,6
2023-01-25T00:52:12.261Z,5
2023-01-25T00:54:12.390Z,6
2023-01-25T00:56:12.496Z,6
2023-01-25T01:00:12.714Z,7
2023-01-25T01:02:12.828Z,7
2023-01-25T01:04:13.046Z,7
2023-01-25T01:06:13.050Z,7
2023-01-25T01:08:13.147Z,5
2023-01-25T01:10:13.238Z,6
2023-01-25T01:12:13.343Z,5
2023-01-25T01:14:13.489Z,5
2023-01-25T01:20:13.824Z,6
2023-01-25T01:22:13.933Z,5
2023-01-25T01:24:14.135Z,5
2023-01-25T01:28:14.264Z,5
2023-01-25T01:30:14.359Z,6
2023-01-25T01:32:14.584Z,5
2023-01-25T01:34:14.575Z,6
2023-01-25T01:36:14.800Z,6
2023-01-25T01:38:14.785Z,6
2023-01-25T01:40:14.929Z,6
2023-01-25T01:42:15.008Z,6
2023-01-25T01:44:15.103Z,6
2023-01-25T01:46:15.291Z,6
2023-01-25T01:48:15.366Z,6
2023-01-25T01:50:15.445Z,6
2023-01-25T01:52:15.611Z,5
2023-01-25T01:54:15.746Z,5
2023-01-25T01:58:15.953Z,6
2023-01-25T02:00:15.947Z,5
2023-01-25T02:02:16.102Z,6
2023-01-25T02:04:16.186Z,6
2023-01-25T02:06:16.299Z,5
2023-01-25T02:08:16.392Z,6
2023-01-25T02:10:16.473Z,6
2023-01-25T02:12:16.630Z,6
2023-01-25T02:14:16.702Z,6
2023-01-25T02:16:16.870Z,6
2023-01-25T02:18:16.944Z,5
2023-01-25T02:22:17.142Z,5
2023-01-25T02:24:17.315Z,6
2023-01-25T02:26:17.374Z,5
2023-01-25T02:28:17.418Z,6
2023-01-25T02:30:17.544Z,6
2023-01-25T02:32:17.682Z,6
2023-01-25T02:34:17.816Z,5
2023-01-25T02:36:17.850Z,5
2023-01-25T02:38:17.976Z,5
2023-01-25T02:40:18.076Z,6
2023-01-25T02:42:18.177Z,6
2023-01-25T02:44:18.291Z,6
2023-01-25T02:46:18.551Z,6
2023-01-25T02:48:18.508Z,5
2023-01-25T02:50:18.628Z,5
2023-01-25T02:52:18.744Z,6
2023-01-25T02:54:18.829Z,5
2023-01-25T02:56:18.913Z,5
2023-01-25T03:00:19.141Z,6
2023-01-25T03:02:19.272Z,5
2023-01-25T03:04:19.335Z,5
2023-01-25T03:06:19.482Z,5
2023-01-25T03:08:19.547Z,6
2023-01-25T03:10:19.674Z,6
2023-01-25T03:12:19.780Z,5
2023-01-25T03:14:19.890Z,6
2023-01-25T03:16:20.067Z,5
2023-01-25T03:18:20.128Z,5
2023-01-25T03:20:20.197Z,5
2023-01-25T03:22:20.307Z,5
2023-01-25T03:26:20.528Z,5
2023-01-25T03:28:20.647Z,6
2023-01-25T03:30:20.736Z,6
2023-01-25T03:34:20.971Z,6
2023-01-25T03:36:21.087Z,6
2023-01-25T03:38:21.172Z,6
2023-01-25T03:42:21.565Z,6
2023-01-25T03:44:21.512Z,6
2023-01-25T03:46:21.600Z,6
2023-01-25T03:50:21.852Z,5
2023-01-25T03:52:21.922Z,6
2023-01-25T03:54:22.028Z,6
2023-01-25T03:56:22.165Z,5
2023-01-25T04:00:22.358Z,5
2023-01-25T04:02:22.492Z,6
2023-01-25T04:04:22.566Z,6
2023-01-25T04:06:22.669Z,6
2023-01-25T04:08:22.765Z,5
2023-01-25T04:10:22.876Z,6
2023-01-25T04:12:23.006Z,6
2023-01-25T04:14:38.738Z,6
2023-01-25T04:16:23.310Z,6
2023-01-25T04:18:23.291Z,6
2023-01-25T04:20:23.400Z,5
2023-01-25T04:22:23.502Z,6
2023-01-25T04:24:23.674Z,6
2023-01-25T04:28:23.895Z,6
2023-01-25T04:30:23.892Z,6
2023-01-25T04:34:24.106Z,5
2023-01-25T04:36:24.210Z,6
2023-01-25T04:38:24.367Z,6
2023-01-25T04:42:24.524Z,6
2023-01-25T04:44:24.655Z,7
2023-01-25T04:46:24.760Z,7
2023-01-25T04:48:24.870Z,8
2023-01-25T04:50:24.988Z,6
2023-01-25T04:52:25.231Z,6
2023-01-25T04:54:25.191Z,6
2023-01-25T04:56:25.306Z,6
2023-01-25T04:58:25.380Z,6
2023-01-25T05:00:25.501Z,6
2023-01-25T05:02:25.637Z,6
2023-01-25T05:04:25.684Z,6
2023-01-25T05:06:25.900Z,6
2023-01-25T05:08:25.902Z,5
2023-01-25T05:10:26.000Z,6
2023-01-25T05:12:26.090Z,6
2023-01-25T05:14:26.179Z,7
2023-01-25T05:16:26.313Z,7
2023-01-25T05:18:30.996Z,6
2023-01-25T05:20:26.502Z,6
2023-01-25T05:22:26.585Z,6
2023-01-25T05:24:26.865Z,6
2023-01-25T05:26:26.833Z,6
2023-01-25T05:28:26.923Z,9
2023-01-25T05:30:27.014Z,12
2023-01-25T05:32:27.124Z,16
2023-01-25T05:34:27.245Z,17
2023-01-25T05:36:27.384Z,16
2023-01-25T05:38:27.440Z,16
2023-01-25T05:40:27.554Z,9
2023-01-25T05:42:27.670Z,8
2023-01-25T05:44:27.779Z,8
2023-01-25T05:46:27.952Z,7
2023-01-25T05:48:27.985Z,7
2023-01-25T05:50:28.121Z,7
2023-01-25T05:52:28.184Z,6
2023-01-25T05:54:28.364Z,7
2023-01-25T05:56:28.383Z,8
2023-01-25T05:58:28.522Z,8
2023-01-25T06:00:28.615Z,8
2023-01-25T06:02:28.768Z,7
2023-01-25T06:04:28.850Z,8
2023-01-25T06:06:28.882Z,7
2023-01-25T06:08:29.055Z,7
2023-01-25T06:10:29.039Z,13
2023-01-25T06:12:30.190Z,13
2023-01-25T06:14:29.274Z,7
2023-01-25T06:18:30.654Z,7
2023-01-25T06:20:29.565Z,6
2023-01-25T06:22:29.700Z,7
2023-01-25T06:24:29.843Z,6
2023-01-25T06:26:29.867Z,5
2023-01-25T06:28:29.976Z,5
2023-01-25T06:30:30.074Z,6
2023-01-25T06:32:30.175Z,5
2023-01-25T06:34:30.302Z,5
2023-01-25T06:36:30.413Z,6
2023-01-25T06:38:30.518Z,5
2023-01-25T06:40:30.605Z,6
2023-01-25T06:42:30.737Z,7
2023-01-25T06:44:30.850Z,6
2023-01-25T06:46:30.947Z,6
2023-01-25T06:48:30.989Z,8
2023-01-25T06:50:31.098Z,7
2023-01-25T06:52:31.212Z,7
2023-01-25T06:54:31.324Z,6
2023-01-25T06:58:31.529Z,6
2023-01-25T07:00:31.647Z,29
2023-01-25T07:02:31.835Z,31
2023-01-25T07:04:31.838Z,17
2023-01-25T07:06:31.909Z,22
2023-01-25T07:08:32.029Z,21
2023-01-25T07:10:33.887Z,13
2023-01-25T07:12:32.222Z,10
2023-01-25T07:14:32.377Z,9
2023-01-25T07:16:32.436Z,8
2023-01-25T07:18:32.543Z,13
2023-01-25T07:20:32.642Z,9
2023-01-25T07:22:32.743Z,10
2023-01-25T07:24:32.939Z,9
2023-01-25T07:26:33.043Z,10
2023-01-25T07:28:33.173Z,9
2023-01-25T07:30:33.219Z,10
2023-01-25T07:32:33.319Z,10
2023-01-25T07:34:33.431Z,10
2023-01-25T07:36:33.537Z,9
2023-01-25T07:38:33.684Z,10
2023-01-25T07:40:33.757Z,12
2023-01-25T07:42:33.855Z,9
2023-01-25T07:44:33.974Z,10
2023-01-25T07:46:34.089Z,12
2023-01-25T07:48:34.203Z,13
2023-01-25T07:50:34.263Z,15
2023-01-25T07:52:34.383Z,9
2023-01-25T07:54:34.479Z,9
2023-01-25T07:56:34.590Z,9
2023-01-25T07:58:34.712Z,11
2023-01-25T08:00:34.855Z,12
2023-01-25T08:04:34.990Z,11
2023-01-25T08:06:35.103Z,11
2023-01-25T08:08:35.214Z,12
2023-01-25T08:10:35.311Z,11
2023-01-25T08:12:35.405Z,12
2023-01-25T08:14:35.529Z,11
2023-01-25T08:16:35.625Z,10
2023-01-25T08:18:36.592Z,12
2023-01-25T08:20:35.891Z,11
2023-01-25T08:22:35.935Z,11
2023-01-25T08:24:36.069Z,11
2023-01-25T08:26:36.128Z,11
2023-01-25T08:28:36.314Z,9
2023-01-25T08:30:36.670Z,9
2023-01-25T08:32:37.289Z,11
2023-01-25T08:34:36.517Z,11
2023-01-25T08:36:36.642Z,12
2023-01-25T08:38:36.720Z,13
2023-01-25T08:42:36.949Z,12
2023-01-25T08:44:37.311Z,10
2023-01-25T08:48:37.226Z,12
2023-01-25T08:50:37.436Z,10
2023-01-25T08:54:37.555Z,9
2023-01-25T08:56:37.655Z,9
2023-01-25T08:58:37.759Z,10
2023-01-25T09:00:37.848Z,10
2023-01-25T09:02:37.943Z,9
2023-01-25T09:08:38.236Z,8
2023-01-25T09:10:38.341Z,7
2023-01-25T09:12:38.422Z,7
2023-01-25T09:14:38.531Z,8
2023-01-25T09:16:38.617Z,7
2023-01-25T09:18:38.726Z,8
2023-01-25T09:20:38.817Z,8
2023-01-25T09:24:39.050Z,9
2023-01-25T09:26:39.264Z,10
2023-01-25T09:28:39.227Z,10
2023-01-25T09:30:46.876Z,9
2023-01-25T09:32:39.569Z,10
2023-01-25T09:34:39.523Z,8
2023-01-25T09:36:39.630Z,10
2023-01-25T09:38:39.701Z,11
2023-01-25T09:40:39.811Z,16
2023-01-25T09:42:39.957Z,14
2023-01-25T09:44:39.994Z,14
2023-01-25T09:46:40.198Z,14
2023-01-25T09:48:40.190Z,11
2023-01-25T09:50:40.343Z,10
2023-01-25T09:52:40.380Z,11
2023-01-25T09:54:46.519Z,18
2023-01-25T09:56:40.588Z,14
2023-01-25T09:58:40.678Z,18
2023-01-25T10:00:40.788Z,16
2023-01-25T10:02:40.979Z,13
2023-01-25T10:04:40.963Z,11
2023-01-25T10:06:46.106Z,10
2023-01-25T10:08:41.148Z,11
2023-01-25T10:10:41.185Z,12
2023-01-25T10:12:41.308Z,27
2023-01-25T10:14:41.385Z,22
2023-01-25T10:16:41.510Z,18
2023-01-25T10:18:41.661Z,30
2023-01-25T10:20:41.652Z,30
2023-01-25T10:22:41.766Z,17
2023-01-25T10:24:41.851Z,12
2023-01-25T10:26:41.918Z,12
2023-01-25T10:28:42.028Z,10
2023-01-25T10:30:42.156Z,9
2023-01-25T10:34:55.359Z,15
2023-01-25T10:36:42.630Z,58
2023-01-25T10:38:42.455Z,26
2023-01-25T10:40:42.533Z,14
2023-01-25T10:42:42.651Z,9
2023-01-25T10:44:42.799Z,10
2023-01-25T10:46:42.891Z,12
2023-01-25T10:48:42.941Z,12
2023-01-25T10:50:43.049Z,10
2023-01-25T10:52:43.130Z,13
2023-01-25T10:54:43.237Z,12
2023-01-25T10:56:43.342Z,18
2023-01-25T10:58:43.401Z,10
2023-01-25T11:00:43.516Z,19
2023-01-25T11:02:43.647Z,16
2023-01-25T11:04:44.358Z,10
2023-01-25T11:06:43.770Z,11
2023-01-25T11:08:43.872Z,9
2023-01-25T11:10:43.932Z,8
2023-01-25T11:12:44.044Z,8
2023-01-25T11:14:44.152Z,9
2023-01-25T11:18:44.364Z,8
2023-01-25T11:20:44.454Z,8
2023-01-25T11:22:44.573Z,8
2023-01-25T11:24:44.637Z,8
2023-01-25T11:26:44.729Z,8
2023-01-25T11:28:44.803Z,9
2023-01-25T11:30:45.161Z,8
2023-01-25T11:32:44.995Z,9
2023-01-25T11:34:45.090Z,13
2023-01-25T11:36:45.188Z,21
2023-01-25T11:38:45.280Z,15
2023-01-25T11:40:45.372Z,13
2023-01-25T11:42:45.578Z,11
2023-01-25T11:44:45.546Z,9
2023-01-25T11:46:45.714Z,8
2023-01-25T11:48:45.722Z,9
2023-01-25T11:50:45.795Z,10
2023-01-25T11:52:46.015Z,12
2023-01-25T11:54:46.102Z,10
2023-01-25T11:56:46.047Z,10
2023-01-25T11:58:46.147Z,13
2023-01-25T12:00:46.209Z,12
2023-01-25T12:02:46.327Z,14
2023-01-25T12:04:46.372Z,23
2023-01-25T12:06:46.496Z,13
2023-01-25T12:08:46.535Z,10
2023-01-25T12:10:46.623Z,9
2023-01-25T12:12:46.726Z,8
2023-01-25T12:14:46.801Z,9
2023-01-25T12:16:46.886Z,8
2023-01-25T12:18:46.959Z,10
2023-01-25T12:20:47.040Z,8
2023-01-25T12:22:47.104Z,8
2023-01-25T12:24:47.210Z,8
2023-01-25T12:26:47.267Z,8
2023-01-25T12:28:47.405Z,8
2023-01-25T12:30:47.472Z,9
2023-01-25T12:32:47.572Z,9
2023-01-25T12:34:47.635Z,9
2023-01-25T12:36:47.729Z,8
2023-01-25T12:38:47.792Z,7
2023-01-25T12:40:47.881Z,7
2023-01-25T12:42:47.972Z,8
2023-01-25T12:44:48.054Z,7
2023-01-25T12:46:48.252Z,7
2023-01-25T12:48:48.258Z,7
2023-01-25T12:50:48.318Z,6
2023-01-25T12:52:48.417Z,7
2023-01-25T12:54:48.491Z,7
2023-01-25T12:56:48.667Z,13
2023-01-25T12:58:48.675Z,10
2023-01-25T13:00:48.818Z,13
2023-01-25T13:02:48.872Z,16
2023-01-25T13:04:48.961Z,48
2023-01-25T13:06:49.032Z,19
2023-01-25T13:08:49.243Z,11
2023-01-25T13:10:49.171Z,8
2023-01-25T13:12:49.275Z,8
2023-01-25T13:14:49.377Z,7
2023-01-25T13:16:53.921Z,7
2023-01-25T13:18:49.525Z,7
2023-01-25T13:20:49.651Z,8
2023-01-25T13:22:49.686Z,9
2023-01-25T13:24:49.793Z,10
2023-01-25T13:26:49.864Z,9
2023-01-25T13:28:50.015Z,9
2023-01-25T13:30:50.092Z,8
2023-01-25T13:32:50.131Z,8
2023-01-25T13:34:50.215Z,8
2023-01-25T13:36:50.255Z,9
2023-01-25T13:38:50.349Z,9
2023-01-25T13:41:20.491Z,8
2023-01-25T13:43:20.602Z,7
2023-01-25T13:45:20.858Z,8
2023-01-25T13:47:20.833Z,7
2023-01-25T13:49:20.985Z,9
2023-01-25T13:51:21.074Z,8
2023-01-25T13:53:21.178Z,8
2023-01-25T13:55:21.323Z,8
2023-01-25T13:57:21.411Z,7
2023-01-25T13:59:21.503Z,7
2023-01-25T14:01:21.655Z,8
2023-01-25T14:03:21.768Z,7
2023-01-25T14:05:21.849Z,9
2023-01-25T14:07:21.965Z,8
2023-01-25T14:09:22.751Z,7
2023-01-25T14:11:22.216Z,7
2023-01-25T14:13:22.358Z,7
2023-01-25T14:15:22.415Z,10
2023-01-25T14:17:22.511Z,25
2023-01-25T14:19:22.661Z,14
2023-01-25T14:21:22.700Z,12
2023-01-25T14:23:22.837Z,9
2023-01-25T14:25:23.014Z,10
2023-01-25T14:27:23.170Z,30
2023-01-25T14:29:32.255Z,16
2023-01-25T14:31:24.110Z,14
2023-01-25T14:33:23.429Z,14
2023-01-25T14:35:27.113Z,17
2023-01-25T14:37:23.607Z,12
2023-01-25T14:39:23.731Z,13
2023-01-25T14:41:23.846Z,16
2023-01-25T14:43:23.941Z,13
2023-01-25T14:45:24.079Z,13
2023-01-25T14:47:24.179Z,12
2023-01-25T14:49:24.239Z,10
2023-01-25T14:51:24.368Z,11
2023-01-25T14:53:24.452Z,17
2023-01-25T14:55:24.635Z,13
2023-01-25T14:57:24.689Z,12
2023-01-25T14:59:24.790Z,12
2023-01-25T15:01:24.951Z,48
2023-01-25T15:03:25.016Z,12
2023-01-25T15:05:25.145Z,19
2023-01-25T15:07:25.259Z,12
2023-01-25T15:09:25.340Z,13
2023-01-25T15:11:25.479Z,16
2023-01-25T15:13:25.598Z,15
2023-01-25T15:15:25.715Z,19
2023-01-25T15:17:25.819Z,19
2023-01-25T15:19:25.906Z,18
2023-01-25T15:21:26.019Z,12
2023-01-25T15:23:26.132Z,15
2023-01-25T15:25:26.247Z,15
2023-01-25T15:27:26.370Z,17
2023-01-25T15:29:26.473Z,17
2023-01-25T15:31:26.747Z,13
2023-01-25T15:33:26.715Z,23
2023-01-25T15:35:26.817Z,16
2023-01-25T15:37:26.966Z,18
2023-01-25T15:39:27.078Z,22
2023-01-25T15:41:27.168Z,24
2023-01-25T15:43:27.317Z,25
2023-01-25T15:45:27.416Z,18
2023-01-25T15:47:27.539Z,18
2023-01-25T15:49:27.643Z,21
2023-01-25T15:51:27.733Z,22
2023-01-25T15:53:27.840Z,16
2023-01-25T15:55:27.972Z,18
2023-01-25T15:57:28.108Z,26
2023-01-25T15:59:28.133Z,37
2023-01-25T16:01:28.319Z,27
2023-01-25T16:03:28.363Z,30
2023-01-25T16:05:28.469Z,34
2023-01-25T16:07:28.561Z,26
2023-01-25T16:09:28.682Z,34
2023-01-25T16:11:28.792Z,25
2023-01-25T16:13:28.925Z,28
2023-01-25T16:15:29.013Z,30
2023-01-25T16:17:29.129Z,29
2023-01-25T16:19:29.347Z,33
2023-01-25T16:21:29.351Z,23
2023-01-25T16:23:29.462Z,14
2023-01-25T16:25:29.564Z,23
2023-01-25T16:27:29.689Z,20
2023-01-25T16:29:29.777Z,23
2023-01-25T16:31:32.906Z,26
2023-01-25T16:33:30.003Z,41
2023-01-25T16:35:30.215Z,26
2023-01-25T16:37:30.259Z,27
2023-01-25T16:39:30.331Z,25
2023-01-25T16:41:30.441Z,28
2023-01-25T16:43:42.127Z,24
2023-01-25T16:45:30.634Z,25
2023-01-25T16:47:30.734Z,30
2023-01-25T16:49:30.844Z,29
2023-01-25T16:51:31.059Z,25
2023-01-25T16:53:31.064Z,24
2023-01-25T16:55:31.208Z,19
2023-01-25T16:57:31.330Z,23
2023-01-25T16:59:31.436Z,17
2023-01-25T17:01:31.610Z,16
2023-01-25T17:03:31.621Z,13
2023-01-25T17:05:31.871Z,11
2023-01-25T17:07:31.849Z,10
2023-01-25T17:09:32.002Z,11
2023-01-25T17:11:32.078Z,13
2023-01-25T17:13:32.150Z,13
2023-01-25T17:15:32.304Z,13
2023-01-25T17:17:32.375Z,13
2023-01-25T17:19:32.531Z,14
2023-01-25T17:21:32.650Z,13
2023-01-25T17:23:32.741Z,15
2023-01-25T17:25:32.834Z,15
2023-01-25T17:27:32.972Z,11
2023-01-25T17:29:33.058Z,30
2023-01-25T17:31:33.243Z,18
2023-01-25T17:33:33.294Z,16
2023-01-25T17:35:33.406Z,23
2023-01-25T17:37:33.508Z,16
2023-01-25T17:39:33.654Z,13
2023-01-25T17:41:33.764Z,15
2023-01-25T17:43:34.611Z,13
2023-01-25T17:45:33.912Z,19
2023-01-25T17:47:34.038Z,13
2023-01-25T17:49:34.168Z,15
2023-01-25T17:51:34.275Z,26
2023-01-25T17:53:34.375Z,14
2023-01-25T17:55:34.497Z,15
2023-01-25T17:57:34.609Z,20
2023-01-25T17:59:34.698Z,26
2023-01-25T18:01:34.918Z,15
2023-01-25T18:03:35.002Z,15
2023-01-25T18:05:35.130Z,21
2023-01-25T18:07:35.151Z,19
2023-01-25T18:09:35.261Z,17
2023-01-25T18:11:35.345Z,16
2023-01-25T18:13:35.453Z,12
2023-01-25T18:15:35.627Z,11
2023-01-25T18:17:35.741Z,9
2023-01-25T18:19:35.848Z,15
2023-01-25T18:21:35.895Z,13
2023-01-25T18:23:35.990Z,13
2023-01-25T18:25:36.086Z,16
2023-01-25T18:27:36.197Z,11
2023-01-25T18:29:36.330Z,11
2023-01-25T18:31:36.584Z,13
2023-01-25T18:33:36.552Z,11
2023-01-25T18:35:36.655Z,13
2023-01-25T18:37:36.785Z,12
2023-01-25T18:39:36.911Z,12
2023-01-25T18:41:36.972Z,13
2023-01-25T18:43:37.069Z,10
2023-01-25T18:45:37.235Z,11
2023-01-25T18:47:37.280Z,10
2023-01-25T18:49:37.377Z,8
2023-01-25T18:51:58.812Z,10
2023-01-25T18:53:37.584Z,13
2023-01-25T18:55:37.748Z,11
2023-01-25T18:57:37.879Z,15
2023-01-25T18:59:38.011Z,15
2023-01-25T19:01:38.058Z,13
2023-01-25T19:03:38.115Z,20
2023-01-25T19:05:38.237Z,24
2023-01-25T19:07:38.311Z,25
2023-01-25T19:09:38.424Z,25
2023-01-25T19:11:38.576Z,29
2023-01-25T19:13:38.767Z,23
2023-01-25T19:15:38.884Z,14
2023-01-25T19:17:38.939Z,17
2023-01-25T19:19:39.075Z,14
2023-01-25T19:21:39.107Z,11
2023-01-25T19:23:39.274Z,12
2023-01-25T19:25:39.375Z,11
2023-01-25T19:27:39.369Z,12
2023-01-25T19:29:39.500Z,13
2023-01-25T19:31:39.821Z,14
2023-01-25T19:33:39.834Z,12
2023-01-25T19:35:39.822Z,11
2023-01-25T19:37:39.918Z,11
2023-01-25T19:39:40.023Z,11
2023-01-25T19:41:40.142Z,14
2023-01-25T19:43:40.231Z,14
2023-01-25T19:45:40.383Z,17
2023-01-25T19:47:40.421Z,12
2023-01-25T19:49:40.553Z,21
2023-01-25T19:51:40.676Z,27
2023-01-25T19:53:40.770Z,10
2023-01-25T19:55:40.871Z,9
2023-01-25T19:57:40.960Z,8
2023-01-25T19:59:41.050Z,11
2023-01-25T20:01:41.244Z,11
2023-01-25T20:03:41.287Z,15
2023-01-25T20:05:41.400Z,23
2023-01-25T20:07:42.418Z,16
2023-01-25T20:09:41.637Z,7
2023-01-25T20:11:41.727Z,10
2023-01-25T20:13:41.835Z,12
2023-01-25T20:15:41.902Z,13
2023-01-25T20:17:42.028Z,18
2023-01-25T20:19:42.136Z,12
2023-01-25T20:21:42.251Z,14
2023-01-25T20:23:42.323Z,14
2023-01-25T20:25:42.432Z,12
2023-01-25T20:27:42.524Z,13
2023-01-25T20:29:42.634Z,17
2023-01-25T20:31:42.735Z,14
2023-01-25T20:33:42.801Z,17
2023-01-25T20:35:42.876Z,13
2023-01-25T20:37:42.980Z,13
2023-01-25T20:39:43.116Z,12
2023-01-25T20:41:43.278Z,12
2023-01-25T20:43:43.301Z,31
2023-01-25T20:45:43.417Z,23
2023-01-25T20:47:43.527Z,25
2023-01-25T20:49:43.652Z,20
2023-01-25T20:51:43.851Z,18
2023-01-25T20:53:43.840Z,15
2023-01-25T20:55:43.942Z,16
2023-01-25T20:57:44.043Z,13
2023-01-25T20:59:44.177Z,14
2023-01-25T21:01:44.307Z,14
2023-01-25T21:03:44.340Z,15
2023-01-25T21:05:44.461Z,12
2023-01-25T21:07:44.659Z,12
2023-01-25T21:09:44.671Z,12
2023-01-25T21:11:44.764Z,12
2023-01-25T21:13:44.868Z,11
2023-01-25T21:15:44.959Z,11
2023-01-25T21:17:45.053Z,11
2023-01-25T21:21:45.241Z,10
2023-01-25T21:23:45.582Z,11
2023-01-25T21:25:45.405Z,10
2023-01-25T21:27:45.532Z,11
2023-01-25T21:29:45.590Z,10
2023-01-25T21:33:45.786Z,8
2023-01-25T21:35:45.884Z,8
2023-01-25T21:37:46.014Z,8
2023-01-25T21:39:46.088Z,8
2023-01-25T21:41:46.199Z,8
2023-01-25T21:43:46.309Z,7
2023-01-25T21:45:46.505Z,8
2023-01-25T21:47:46.500Z,8
2023-01-25T21:49:46.647Z,8
2023-01-25T21:51:46.724Z,8
2023-01-25T21:53:46.852Z,8
2023-01-25T21:55:46.917Z,7
2023-01-25T21:57:47.028Z,7
2023-01-25T21:59:47.120Z,7
2023-01-25T22:03:47.386Z,9
2023-01-25T22:05:47.439Z,9
2023-01-25T22:07:47.534Z,9
2023-01-25T22:09:47.641Z,9
2023-01-25T22:11:47.712Z,9
2023-01-25T22:13:47.851Z,9
2023-01-25T22:15:47.978Z,9
2023-01-25T22:17:48.053Z,9
2023-01-25T22:19:48.148Z,8
2023-01-25T22:21:48.261Z,10
2023-01-25T22:23:48.486Z,9
2023-01-25T22:25:48.428Z,8
2023-01-25T22:27:48.526Z,9
2023-01-25T22:29:48.607Z,8
2023-01-25T22:31:48.781Z,9
2023-01-25T22:33:48.839Z,8
2023-01-25T22:35:48.924Z,9
2023-01-25T22:37:49.021Z,9
2023-01-25T22:39:49.110Z,9
2023-01-25T22:41:49.253Z,9
2023-01-25T22:43:49.316Z,9
2023-01-25T22:45:49.393Z,8
2023-01-25T22:47:49.513Z,8
2023-01-25T22:49:49.608Z,10
2023-01-25T22:51:49.729Z,9
2023-01-25T22:53:49.817Z,8
2023-01-25T22:57:50.039Z,8
2023-01-25T22:59:50.122Z,10
2023-01-25T23:01:50.220Z,9
2023-01-25T23:03:50.335Z,8
2023-01-25T23:05:50.418Z,9
2023-01-25T23:07:50.502Z,8
2023-01-25T23:09:50.608Z,8
2023-01-25T23:11:50.690Z,9
2023-01-25T23:13:50.807Z,10
2023-01-25T23:15:50.930Z,11
2023-01-25T23:17:51.013Z,10
2023-01-25T23:21:51.217Z,10
2023-01-25T23:23:51.424Z,9
2023-01-25T23:25:51.448Z,9
2023-01-25T23:27:51.527Z,10
2023-01-25T23:29:51.704Z,9
2023-01-25T23:31:51.751Z,9
2023-01-25T23:33:51.823Z,8
2023-01-25T23:35:51.928Z,9
2023-01-25T23:39:52.173Z,8
2023-01-25T23:41:52.232Z,8
2023-01-25T23:43:52.308Z,8
2023-01-25T23:45:52.434Z,8
2023-01-25T23:47:52.527Z,8
2023-01-25T23:49:52.622Z,7
2023-01-25T23:51:52.726Z,8
2023-01-25T23:53:52.852Z,8
2023-01-25T23:55:52.951Z,7
2023-01-25T23:57:53.060Z,6
2023-01-25T23:59:53.130Z,7
